Flight Track Log - Related Links

Times and Time Zones

All times are in EST time to prevent confusion due to time zone crossing. See the PDT4207 flight status page for this flight to view local times or setup timezone preferences in your user account.

Time Position Orientation Groundspeed Altitude Reporting Facility
EST Latitude Longitude Course Direction KTS MPH feet Rate Location/Type
Wed 09:36:42 PM 39.9000 -75.2333 303° West 106 122 600  Level Philadelphia TRACON
Wed 09:38:12 PM 39.9000 -75.3000 270° West 144 166 2,700 1,480 Climbing Philadelphia TRACON
Wed 09:39:00 PM 40.0160 -75.3660 323° Northwest  Level FlightAware Approximate
Wed 09:39:12 PM 39.9167 -75.3500 294° West 145 167 4,300  Level Philadelphia TRACON
Wed 09:40:00 PM 40.0650 -75.4150 323° Northwest  Level FlightAware Approximate
Wed 09:40:06 PM 39.9333 -75.4000 294° West 148 170 5,400  Level Philadelphia TRACON
Wed 09:41:00 PM 40.1130 -75.4594 303° West  Level FlightAware Approximate
Wed 09:41:06 PM 39.9500 -75.4500 294° West 152 175 7,000  Level Philadelphia TRACON
Wed 09:42:00 PM 39.9500 -75.5000 270° West 151 174 8,300 1,008 Climbing Philadelphia TRACON
Wed 09:43:05 PM 40.0014 -75.5186 344° North 194 223 9,000 576 Climbing New York Center
Wed 09:44:05 PM 40.0533 -75.5219 357° North 204 235 9,500 750 Climbing New York Center
Wed 09:45:05 PM 40.1111 -75.5369 349° North 198 228 10,500 950 Climbing New York Center
Wed 09:46:05 PM 40.1608 -75.5403 357° North 198 228 11,400 750 Climbing New York Center
Wed 09:47:05 PM 40.2233 -75.5444 357° North 203 234 12,000 300 Climbing New York Center
Wed 09:48:05 PM 40.2675 -75.5831 326° Northwest 189 217 12,000  Level New York Center
Wed 09:49:05 PM 40.3317 -75.5928 353° North 212 244 12,000  Level New York Center
Wed 09:50:05 PM 40.3917 -75.6081 349° North 232 267 12,000  Level New York Center
Wed 09:51:05 PM 40.4553 -75.6314 344° North 238 274 12,000  Level New York Center
Wed 09:52:05 PM 40.5253 -75.6503 348° North 243 280 12,000  Level New York Center
Wed 09:53:05 PM 40.5961 -75.6553 357° North 243 280 12,000  Level New York Center
Wed 09:54:05 PM 40.6642 -75.6683 352° North 243 280 12,000  Level New York Center
Wed 09:55:05 PM 40.7264 -75.6753 355° North 243 280 12,000  Level New York Center
Wed 09:56:05 PM 40.7925 -75.6883 351° North 243 280 12,000  Level New York Center
Wed 09:57:05 PM 40.8669 -75.7047 351° North 243 280 12,000 50 Level New York Center
Wed 09:58:05 PM 40.9308 -75.7203 350° North 237 273 12,100  Climbing New York Center
Wed 09:59:05 PM 40.9992 -75.7336 352° North 237 273 12,000 -100 Descending New York Center
Wed 10:00:05 PM 41.0653 -75.7439 353° North 245 282 11,900 -50 Descending New York Center
Wed 10:01:05 PM 41.1333 -75.7628 348° North 240 276 11,900  Level New York Center
Wed 10:02:05 PM 41.2014 -75.7761 352° North 240 276 11,900 -500 Level New York Center
Wed 10:03:05 PM 41.2653 -75.7917 350° North 245 282 10,900 -950 Descending New York Center
Wed 10:04:05 PM 41.3378 -75.8056 352° North 250 288 10,000 -450 Descending New York Center
Wed 10:05:05 PM 41.4058 -75.8161 353° North 256 295 10,000 -350 Level New York Center
Wed 10:06:05 PM 41.4719 -75.8322 350° North 251 289 9,300 -900 Descending New York Center
Wed 10:07:05 PM 41.5481 -75.8517 349° North 251 289 8,200 -650 Descending New York Center
Wed 10:08:05 PM 41.6142 -75.8622 353° North 251 289 8,000 -50 Descending New York Center
Wed 10:09:05 PM 41.6678 -75.8775 348° North 229 264 8,100 50 Climbing New York Center
Wed 10:10:05 PM 41.7356 -75.8967 348° North 224 258 8,100 -350 Level New York Center
Wed 10:11:05 PM 41.8019 -75.9044 355° North 224 258 7,400 -700 Descending New York Center
Wed 10:12:05 PM 41.8661 -75.9122 355° North 234 269 6,700 -700 Descending New York Center
Wed 10:13:05 PM 41.9283 -75.9169 357° North 239 275 6,000 -850 Descending New York Center
Wed 10:14:05 PM 41.9947 -75.9222 357° North 234 269 5,000 -900 Descending New York Center
Wed 10:15:05 PM 42.0631 -75.9303 355° North 239 275 4,200 -850 Descending New York Center
Wed 10:16:05 PM 42.1233 -75.9350 357° North 228 262 3,300 -850 Descending New York Center
Wed 10:17:05 PM 42.1664 -75.9494 346° North 192 221 2,500 -600 Descending New York Center
Wed 10:18:05 PM 42.2200 -75.9622 350° North 173 199 2,100 -400 Descending New York Center

Login

Don't have an account? Register now (free) for customized features, flight alerts, and more!